Catalina, Canada
Current Conditions -  °F | °C
As of 2:00 PM on Friday 24 Oct 2014 (Local Time) from CYYT Reporting Station
Drizzle Drizzle  
Wind Chill: 50°   Ceiling: 100
Heat Index: 50°   Visibility: 0.25mi
Dew Point: 50°   Wind: 16mph
Humidity: 100%   Direction: 80°E
Pressure: 29.85"   Gusts: NA
Location:  48.52°N, 53.08°W
Report Text: CYYT 241600Z 08014KT 1/4SM R11/2000FT/N -DZ FG VV001 10/10 A2985 RMK FG8 SLP112
Loading
Personal Weather Stations






























Interactive Weather Map
Tropical Storm Tracking
New forecast layout! Learn more

10-Day Weather Forecast

Advertisements
Track Severe Weather on mobile